PASIPAPG

Guest
Details From PASI - SITKA ROCKY GUTIERREZ
To PAPG - PETERSBURG JAMES A JOHNSON
Flight Number -
Tags generated
Created
Modified
Stats Distance 83 nm / 154 km
Max Altitude 3,200 ft / 975 m
Waypoints 3
Social Downloads 1
Likes 0
Share VATSIM

Download

Looking for another format? Having issues loading an existing format? Contact us
Advertisement - Login to hide

Notes

Basic altitude profile: - Ascent Rate: 1000ft/min - Ascent Speed: 110kts - Cruise Altitude: 5000ft - Cruise Speed: 205kts - Descent Rate: 750ft/min - Descent Speed: 120kts Options: - Use NATs: yes - Use PACOTS: yes - Use low airways: yes - Use high airways: yes

Route

PASI TURKS PAPG

ID Type Via Altitude Latitude Longitude Leg Dist Tot Dist Heading (true) Name
O PASI APT - 0 ft / 0 m 57.04713˚ -135.36160˚ - 0 nm - SITKA ROCKY GUTIERREZ
TURKS FIX - 3,200 ft / 975 m 56.71661˚ -133.38462˚ 67 nm 67 nm 106° / 108° -
O PAPG APT - 0 ft / 0 m 56.80165˚ -132.94529˚ 15 nm 83 nm 70° / 71° PETERSBURG JAMES A JOHNSON

Altitude Profile

Advertisement - Login to hide

PASI

Details ICAO PASI (SIT)
Name SITKA ROCKY GUTIERREZ
Region USA (Alaska)
Timezone America/Juneau (UTC-8.0)
Stats Elevation 21 ft / 6 m (AMSL)
Location 57.047128° -135.361597°
Runways 1
Magnetic Variation 18.630° E

METAR

PASI 271021Z 13009KT 10SM -RA BKN027 BKN042 OVC050 08/05 A2971

Decode

TAF

PASI 270522Z 2706/2806 15012G25KT 6SM -SHRA SCT025 OVC040 FM271000 15015G30KT P6SM -SHRA BKN025 OVC040 WS020/18040KT FM272000 15013G20KT P6SM -SHRA SCT025 OVC040 FM280300 16010KT P6SM -SHRA SCT025 BKN040

Decode

Departure Runways

ID Width Length Bearing (true) Bearing (mag) Surface Threshold Offset Overrun Length
11 150 ft / 46 m 6,485 ft / 1,977 m 135.57° 116.94° Asphalt 0 ft / 0 m 0 ft / 0 m
29 150 ft / 46 m 6,485 ft / 1,977 m 315.59° 296.96° Asphalt 0 ft / 0 m 0 ft / 0 m

PAPG

Details ICAO PAPG (PSG)
Name PETERSBURG JAMES A JOHNSON
Region USA (Alaska)
Timezone America/Juneau (UTC-8.0)
Stats Elevation 105 ft / 32 m (AMSL)
Location 56.801651° -132.945289°
Runways 1
Magnetic Variation 18.748° E

METAR

PAPG 270956Z AUTO 09004KT 10SM SCT055 07/04 A2983 RMK AO2 SLP105 T00720044

Decode

TAF

PAPG 270631Z 2707/2806 11005KT 6SM -SHRA SCT025 OVC035 WS020/15030KT TEMPO 2707/2709 20010G22KT 5SM -SHRA BKN025 OVC035 FM270900 17007KT P6SM -SHRA OVC035 FM272100 08006KT 6SM -SHRA OVC050 AMD LTD TO CLD VIS AND WIND 2706/2715

Decode

Destination Runways

ID Width Length Bearing (true) Bearing (mag) Surface Threshold Offset Overrun Length
04 150 ft / 46 m 5,982 ft / 1,823 m 70.70° 51.95° Asphalt 0 ft / 0 m 0 ft / 0 m
22 150 ft / 46 m 5,982 ft / 1,823 m 250.73° 231.98° Asphalt 0 ft / 0 m 0 ft / 0 m

Approach Navaids

Runway Type Ident Frequency Range Bearing (true) Bearing (mag) Slope Elevation
22 Localiser IPSG 110.50 MHz 18 nm / 33 km 185.00° 166.25° - 151 ft / 46 m (AMSL)
22 DME IPSG 110.50 MHz 18 nm / 33 km - - - 164 ft / 50 m (AMSL)

Popular Alternatives